الصفحة الرئيسية
METAR-TAF:

METAR-TAF

مطار :

Kisarazu, اليابان

دائرة عرض: 35-24N, خط طول: 139-55E, ارتفاع: 3 متر

مراقبة الطقس الحالي

تاريخ ووقت الإصدار 4ساعات و 3 دقيقة قبل الساعة 22:45UTC
ريح 8 عقدة من الجنوب/الجنوب الغربي
درجة الحرارة 26°درجة مئوية
الرطوبة 84%
ضغط 1007 hPa
الرؤية 10 كم أو أكثر
غيوم قليلة على ارتفاع 1500 قدم
غيوم متفرقة على ارتفاع 2000 قدم
غيوم مفككة على ارتفاع 20000 قدم

METAR: RJTK 242245Z 20008KT 9999 FEW015 SCT020 BKN200 26/23 Q1007 RMK 1CU015 3CU020 7CI200 A2975

زمن: 11:48 (02:48 UTC)


TAF: مفقودة

أرصاد الطقس والتوقعات من أكثر من 4000 مطار (تقارير الطقس للمطار METAR والتنبؤ بالطقس بالمطارTAF).

المحطات المتاحة هي النقط الصفراء والحمراء على الخريطة.

حرك المؤشر فوق النقطة لمعرفة اسم المحطة.

ثم انقر لمعرفة أرصاد وتوقعات الطقس.

لتغيير الخارطة: اضغط على الأزرار الخضراء مع رمز الصليب الأسود للتكبير. على الزر الأخضر مع شرطة للتصغير، أو على الأسهم الخضراء للخرائط المجاورة.


METAR-TAF: